createdAt,value
2022-09-05T00:00:28.034Z,0.00
2022-09-05T00:01:28.885Z,0.00
2022-09-05T00:04:28.615Z,0.00
2022-09-05T00:08:28.269Z,0.00
2022-09-05T00:09:28.485Z,0.00
2022-09-05T00:10:36.108Z,0.00
2022-09-05T00:13:28.399Z,0.00
2022-09-05T00:14:34.451Z,0.00
2022-09-05T00:16:41.258Z,0.00
2022-09-05T00:20:21.959Z,0.00
2022-09-05T00:24:19.943Z,0.00
2022-09-05T00:24:21.239Z,0.00
2022-09-05T00:24:26.946Z,0.00
2022-09-05T00:24:31.895Z,0.00
2022-09-05T00:24:37.910Z,0.00
2022-09-05T00:25:31.652Z,0.00
2022-09-05T00:26:29.806Z,0.00
2022-09-05T00:27:29.327Z,0.00
2022-09-05T00:28:29.153Z,0.00
2022-09-05T00:30:43.922Z,0.00
2022-09-05T00:31:08.599Z,0.00
2022-09-05T00:32:30.016Z,0.00
2022-09-05T00:33:29.666Z,0.00
2022-09-05T00:34:47.247Z,0.00
2022-09-05T00:35:29.363Z,0.00
2022-09-05T00:36:29.387Z,0.00
2022-09-05T00:37:29.414Z,0.00
2022-09-05T00:38:32.073Z,0.00
2022-09-05T00:39:29.783Z,0.00
2022-09-05T00:40:29.560Z,0.00
2022-09-05T00:41:29.529Z,0.00
2022-09-05T00:42:29.561Z,0.00
2022-09-05T00:44:30.224Z,0.00
2022-09-05T00:45:29.650Z,0.00
2022-09-05T00:46:32.176Z,0.00
2022-09-05T00:47:29.912Z,0.00
2022-09-05T00:48:29.939Z,0.00
2022-09-05T00:49:30.374Z,0.00
2022-09-05T00:50:29.996Z,0.00
2022-09-05T00:51:34.565Z,0.00
2022-09-05T00:52:30.052Z,0.00
2022-09-05T00:53:31.809Z,0.00
2022-09-05T00:54:40.544Z,0.00
2022-09-05T00:55:29.942Z,0.00
2022-09-05T00:56:29.970Z,0.00
2022-09-05T00:57:29.999Z,0.00
2022-09-05T00:58:33.842Z,0.00
2022-09-05T01:00:30.379Z,0.00
2022-09-05T01:01:30.225Z,0.00
2022-09-05T01:02:30.219Z,0.00
2022-09-05T01:03:30.179Z,0.00
2022-09-05T01:04:30.202Z,0.00
2022-09-05T01:05:30.233Z,0.00
2022-09-05T01:06:30.261Z,0.00
2022-09-05T01:07:30.273Z,0.00
2022-09-05T01:09:30.554Z,0.00
2022-09-05T01:11:30.408Z,0.00
2022-09-05T01:12:30.433Z,0.00
2022-09-05T01:15:32.673Z,0.00
2022-09-05T01:16:30.955Z,0.00
2022-09-05T01:17:31.291Z,0.00
2022-09-05T01:18:30.818Z,0.00
2022-09-05T01:19:31.649Z,0.00
2022-09-05T01:20:32.081Z,0.00
2022-09-05T01:21:31.002Z,0.00
2022-09-05T01:23:30.758Z,0.00
2022-09-05T01:24:30.986Z,0.00
2022-09-05T01:25:30.811Z,0.00
2022-09-05T01:26:31.247Z,0.00
2022-09-05T01:27:35.200Z,0.00
2022-09-05T01:33:31.559Z,0.00
2022-09-05T01:34:31.945Z,0.00
2022-09-05T01:35:31.088Z,0.00
2022-09-05T01:36:31.119Z,0.00
2022-09-05T01:37:33.413Z,0.00
2022-09-05T01:38:31.177Z,0.00
2022-09-05T01:40:11.394Z,0.00
2022-09-05T01:40:31.266Z,0.00
2022-09-05T01:41:31.307Z,0.00
2022-09-05T01:42:31.641Z,0.00
2022-09-05T01:43:31.321Z,0.00
2022-09-05T01:45:39.923Z,0.00
2022-09-05T01:46:31.478Z,0.00
2022-09-05T01:47:31.450Z,0.00
2022-09-05T01:48:31.787Z,0.00
2022-09-05T01:49:31.506Z,0.00
2022-09-05T01:52:31.601Z,0.00
2022-09-05T01:53:31.620Z,0.00
2022-09-05T01:54:31.655Z,0.00
2022-09-05T01:55:31.682Z,0.00
2022-09-05T01:56:32.117Z,0.00
2022-09-05T02:01:33.247Z,0.00
2022-09-05T02:03:33.016Z,0.00
2022-09-05T02:06:32.205Z,0.00
2022-09-05T02:08:32.569Z,0.00
2022-09-05T02:09:32.490Z,0.00
2022-09-05T02:10:32.520Z,0.00
2022-09-05T02:11:34.908Z,0.00
2022-09-05T02:13:32.492Z,0.00
2022-09-05T02:15:32.461Z,0.00
2022-09-05T02:16:32.798Z,0.00
2022-09-05T02:17:49.980Z,0.00
2022-09-05T02:18:32.343Z,0.00
2022-09-05T02:19:32.362Z,0.00
2022-09-05T02:20:32.404Z,0.00
2022-09-05T02:21:32.429Z,0.00
2022-09-05T02:22:33.175Z,0.00
2022-09-05T02:23:40.989Z,0.00
2022-09-05T02:24:32.719Z,0.00
2022-09-05T02:26:01.509Z,0.00
2022-09-05T02:26:32.563Z,0.00
2022-09-05T02:28:03.615Z,0.00
2022-09-05T02:30:32.892Z,0.00
2022-09-05T02:33:32.780Z,0.00
2022-09-05T02:34:33.006Z,0.00
2022-09-05T02:35:32.840Z,0.00
2022-09-05T02:36:32.857Z,0.00
2022-09-05T02:40:03.693Z,0.00
2022-09-05T02:45:04.041Z,0.00
2022-09-05T02:45:08.246Z,0.00
2022-09-05T02:45:08.327Z,0.00
2022-09-05T02:45:12.795Z,0.00
2022-09-05T02:45:33.425Z,0.00
2022-09-05T02:46:33.672Z,0.00
2022-09-05T02:47:33.983Z,0.00
2022-09-05T02:54:40.237Z,0.00
2022-09-05T02:57:25.369Z,0.00
2022-09-05T02:57:33.416Z,0.00
2022-09-05T02:57:35.597Z,0.00
2022-09-05T02:57:36.696Z,0.00
2022-09-05T02:58:06.554Z,0.00
2022-09-05T02:58:07.276Z,0.00
2022-09-05T02:59:08.158Z,0.00
2022-09-05T02:59:41.099Z,0.00
2022-09-05T03:00:41.113Z,0.00
2022-09-05T03:01:41.418Z,0.00
2022-09-05T03:02:41.437Z,0.00
2022-09-05T03:03:41.215Z,0.00
2022-09-05T03:04:41.238Z,0.00
2022-09-05T03:05:41.475Z,0.00
2022-09-05T03:06:41.295Z,0.00
2022-09-05T03:07:41.315Z,0.00
2022-09-05T03:08:41.342Z,0.00
2022-09-05T03:09:41.385Z,0.00
2022-09-05T03:10:54.592Z,0.00
2022-09-05T03:11:41.428Z,0.00
2022-09-05T03:12:41.455Z,0.00
2022-09-05T03:13:46.323Z,0.00
2022-09-05T03:14:41.510Z,0.00
2022-09-05T03:15:41.561Z,0.00
2022-09-05T03:18:41.845Z,0.00
2022-09-05T03:19:46.555Z,0.00
2022-09-05T03:22:41.757Z,0.00
2022-09-05T03:23:41.779Z,0.00
2022-09-05T03:24:42.016Z,0.00
2022-09-05T03:25:41.843Z,0.00
2022-09-05T03:29:41.952Z,0.00
2022-09-05T03:31:42.012Z,0.00
2022-09-05T03:32:42.276Z,0.00
2022-09-05T03:34:42.305Z,0.00
2022-09-05T03:35:42.124Z,0.00
2022-09-05T03:37:42.178Z,0.00
2022-09-05T03:40:42.963Z,0.00
2022-09-05T03:41:42.282Z,0.00
2022-09-05T03:42:42.309Z,0.00
2022-09-05T03:43:42.336Z,0.00
2022-09-05T03:44:42.369Z,0.00
2022-09-05T03:45:42.456Z,0.00
2022-09-05T03:46:42.424Z,0.00
2022-09-05T03:47:42.451Z,0.00
2022-09-05T03:48:42.482Z,0.00
2022-09-05T03:52:10.505Z,0.00
2022-09-05T03:56:55.588Z,0.00
2022-09-05T03:57:15.838Z,0.00
2022-09-05T03:57:20.507Z,0.00
2022-09-05T03:58:56.426Z,0.00
2022-09-05T03:59:41.223Z,0.00
2022-09-05T04:00:41.246Z,0.00
2022-09-05T04:03:51.770Z,0.00
2022-09-05T04:08:08.851Z,0.00
2022-09-05T04:08:15.981Z,0.00
2022-09-05T04:08:18.933Z,0.00
2022-09-05T04:08:19.632Z,0.00
2022-09-05T04:08:21.877Z,0.00
2022-09-05T04:08:28.551Z,0.00
2022-09-05T04:08:43.276Z,0.00
2022-09-05T04:09:51.068Z,0.00
2022-09-05T04:10:41.894Z,0.00
2022-09-05T04:13:41.827Z,0.00
2022-09-05T04:15:41.688Z,4.00
2022-09-05T04:20:42.031Z,0.00
2022-09-05T04:21:42.058Z,4.00
2022-09-05T04:33:42.184Z,28.00
2022-09-05T04:34:42.209Z,32.00
2022-09-05T04:35:42.241Z,36.00
2022-09-05T04:37:24.817Z,48.00
2022-09-05T04:38:24.942Z,56.00
2022-09-05T04:39:24.936Z,60.00
2022-09-05T04:41:37.756Z,76.00
2022-09-05T04:42:22.929Z,92.00
2022-09-05T04:44:22.562Z,116.00
2022-09-05T04:45:24.147Z,132.00
2022-09-05T04:47:23.070Z,160.00
2022-09-05T04:48:22.708Z,184.00
2022-09-05T04:49:24.470Z,200.00
2022-09-05T04:51:19.347Z,252.00
2022-09-05T04:53:00.507Z,308.00
2022-09-05T04:53:57.902Z,344.00
2022-09-05T04:55:57.970Z,424.00
2022-09-05T04:56:57.980Z,468.00
2022-09-05T04:57:58.220Z,512.00
2022-09-05T05:04:38.142Z,612.00
2022-09-05T05:06:08.355Z,752.00
2022-09-05T05:06:09.963Z,940.00
2022-09-05T05:06:15.113Z,860.00
2022-09-05T05:06:18.909Z,804.00
2022-09-05T05:09:44.964Z,1256.00
2022-09-05T05:17:23.856Z,1320.00
2022-09-05T05:18:06.720Z,1580.00
2022-09-05T05:18:14.225Z,1736.00
2022-09-05T05:18:38.762Z,1816.00
2022-09-05T05:20:39.818Z,1960.00
2022-09-05T05:22:18.704Z,2120.00
2022-09-05T05:24:21.942Z,2192.00
2022-09-05T05:26:01.322Z,2236.00
2022-09-05T05:27:01.351Z,2284.00
2022-09-05T05:28:01.396Z,2344.00
2022-09-05T05:29:01.424Z,2404.00
2022-09-05T05:30:01.455Z,2472.00
2022-09-05T05:31:02.134Z,2532.00
2022-09-05T05:32:45.465Z,2576.00
2022-09-05T05:33:01.520Z,2624.00
2022-09-05T05:34:02.420Z,2668.00
2022-09-05T05:35:01.578Z,2720.00
2022-09-05T05:36:01.608Z,2780.00
2022-09-05T05:37:01.637Z,2820.00
2022-09-05T05:38:01.665Z,2884.00
2022-09-05T05:39:01.691Z,2996.00
2022-09-05T05:40:02.125Z,3120.00
2022-09-05T05:41:01.757Z,3308.00
2022-09-05T05:42:20.895Z,3316.00
2022-09-05T05:43:02.125Z,3428.00
2022-09-05T05:44:01.852Z,5060.00
2022-09-05T05:45:02.076Z,5844.00
2022-09-05T05:46:02.663Z,4496.00
2022-09-05T05:48:03.378Z,5568.00
2022-09-05T05:49:02.397Z,7292.00
2022-09-05T05:50:02.230Z,7672.00
2022-09-05T05:53:02.309Z,13568.00
2022-09-05T05:55:09.693Z,27872.00
2022-09-05T05:56:02.805Z,40064.00
2022-09-05T05:57:12.548Z,48096.00
2022-09-05T05:59:02.280Z,35680.00
2022-09-05T06:00:02.297Z,13064.00
2022-09-05T06:01:02.330Z,14976.00
2022-09-05T06:02:02.500Z,13496.00
2022-09-05T06:03:24.633Z,7264.00
2022-09-05T06:04:02.416Z,7588.00
2022-09-05T06:05:04.184Z,10004.00
2022-09-05T06:06:35.903Z,7736.00
2022-09-05T06:07:02.523Z,5376.00
2022-09-05T06:10:22.715Z,4984.00
2022-09-05T06:12:05.600Z,6408.00
2022-09-05T06:14:49.380Z,11936.00
2022-09-05T06:14:49.534Z,5656.00
2022-09-05T06:14:55.256Z,7724.00
2022-09-05T06:15:05.579Z,12792.00
2022-09-05T06:15:10.677Z,9304.00
2022-09-05T06:16:06.687Z,9028.00
2022-09-05T06:17:02.808Z,6788.00
2022-09-05T06:18:02.837Z,9824.00
2022-09-05T06:19:02.869Z,15236.00
2022-09-05T06:22:07.670Z,15224.00
2022-09-05T06:22:09.904Z,11608.00
2022-09-05T06:22:11.591Z,8088.00
2022-09-05T06:23:02.995Z,14860.00
2022-09-05T06:24:03.019Z,15764.00
2022-09-05T06:25:15.478Z,4964.00
2022-09-05T06:26:03.078Z,4732.00
2022-09-05T06:27:03.112Z,4684.00
2022-09-05T06:28:18.107Z,4404.00
2022-09-05T06:29:03.171Z,4476.00
2022-09-05T06:30:03.198Z,4460.00
2022-09-05T06:31:30.893Z,4384.00
2022-09-05T06:32:03.332Z,4380.00
2022-09-05T06:33:03.290Z,4388.00
2022-09-05T06:34:03.318Z,4440.00
2022-09-05T06:35:03.351Z,4596.00
2022-09-05T06:36:04.404Z,4772.00
2022-09-05T06:37:03.411Z,4636.00
2022-09-05T06:38:03.440Z,4628.00
2022-09-05T06:39:03.471Z,4608.00
2022-09-05T06:40:03.625Z,4492.00
2022-09-05T06:41:03.533Z,4480.00
2022-09-05T06:42:03.560Z,4496.00
2022-09-05T06:43:03.596Z,4516.00
2022-09-05T06:44:03.622Z,4524.00
2022-09-05T06:45:26.778Z,4540.00
2022-09-05T06:46:03.745Z,4556.00
2022-09-05T06:47:23.810Z,4580.00
2022-09-05T06:48:03.741Z,4628.00
2022-09-05T06:49:30.500Z,4660.00
2022-09-05T06:50:23.764Z,4688.00
2022-09-05T06:51:08.089Z,4720.00
2022-09-05T06:52:22.945Z,4760.00
2022-09-05T06:53:19.556Z,4800.00
2022-09-05T06:54:03.933Z,4836.00
2022-09-05T06:55:03.958Z,4880.00
2022-09-05T06:56:03.991Z,4908.00
2022-09-05T06:57:04.042Z,4940.00
2022-09-05T06:58:04.051Z,4960.00
2022-09-05T06:59:08.996Z,4980.00
2022-09-05T07:00:04.111Z,5004.00
2022-09-05T07:01:04.268Z,5024.00
2022-09-05T07:02:04.385Z,5044.00
2022-09-05T07:03:04.285Z,5060.00
2022-09-05T07:04:31.912Z,5072.00
2022-09-05T07:05:37.139Z,5088.00
2022-09-05T07:06:04.301Z,5108.00
2022-09-05T07:07:06.167Z,5108.00
2022-09-05T07:08:13.591Z,5112.00
2022-09-05T07:09:04.393Z,5108.00
2022-09-05T07:10:22.055Z,5112.00
2022-09-05T07:11:16.302Z,5120.00
2022-09-05T07:12:05.297Z,5120.00
2022-09-05T07:13:04.520Z,5120.00
2022-09-05T07:14:04.553Z,5132.00
2022-09-05T07:15:08.419Z,5140.00
2022-09-05T07:16:04.676Z,5156.00
2022-09-05T07:17:04.648Z,5168.00
2022-09-05T07:18:10.669Z,5188.00
2022-09-05T07:19:04.711Z,5208.00
2022-09-05T07:20:04.777Z,5216.00
2022-09-05T07:21:16.481Z,5232.00
2022-09-05T07:22:04.808Z,5256.00
2022-09-05T07:23:38.350Z,5264.00
2022-09-05T07:24:10.230Z,5280.00
2022-09-05T07:25:04.906Z,5336.00
2022-09-05T07:26:04.934Z,5388.00
2022-09-05T07:27:04.969Z,5412.00
2022-09-05T07:28:28.887Z,5448.00
2022-09-05T07:29:05.034Z,5476.00
2022-09-05T07:30:05.067Z,5480.00
2022-09-05T07:31:05.150Z,5512.00
2022-09-05T07:32:05.303Z,5548.00
2022-09-05T07:33:05.164Z,5560.00
2022-09-05T07:34:05.539Z,5588.00
2022-09-05T07:35:05.232Z,5600.00
2022-09-05T07:36:05.263Z,5612.00
2022-09-05T07:37:14.097Z,5624.00
2022-09-05T07:38:05.327Z,5664.00
2022-09-05T07:39:27.482Z,5676.00
2022-09-05T07:40:25.257Z,5676.00
2022-09-05T07:41:05.426Z,5692.00
2022-09-05T07:42:05.457Z,5704.00
2022-09-05T07:43:09.028Z,5724.00
2022-09-05T07:44:05.523Z,5720.00
2022-09-05T07:45:05.558Z,5716.00
2022-09-05T07:46:05.628Z,5700.00
2022-09-05T07:47:05.625Z,5700.00
2022-09-05T07:48:05.657Z,5692.00
2022-09-05T07:49:05.691Z,5688.00
2022-09-05T07:50:29.299Z,5684.00
2022-09-05T07:56:53.218Z,5684.00
2022-09-05T07:56:56.722Z,5684.00
2022-09-05T07:56:59.522Z,5716.00
2022-09-05T07:57:01.956Z,5704.00
2022-09-05T07:57:03.847Z,5680.00
2022-09-05T07:57:08.067Z,5688.00
2022-09-05T07:57:30.399Z,5744.00
2022-09-05T07:58:05.991Z,5728.00
2022-09-05T07:59:06.026Z,5784.00
2022-09-05T08:00:06.059Z,5808.00
2022-09-05T08:01:06.153Z,5824.00
2022-09-05T08:02:06.125Z,5844.00
2022-09-05T08:03:06.161Z,5860.00
2022-09-05T08:04:06.192Z,5876.00
2022-09-05T08:05:06.363Z,5900.00
2022-09-05T08:06:06.262Z,5928.00
2022-09-05T08:07:49.322Z,5948.00
2022-09-05T08:08:06.328Z,5940.00
2022-09-05T08:10:00.894Z,5936.00
2022-09-05T08:10:08.937Z,5876.00
2022-09-05T08:11:24.906Z,5852.00
2022-09-05T08:12:09.583Z,5840.00
2022-09-05T08:13:23.612Z,5836.00
2022-09-05T08:14:36.767Z,5828.00
2022-09-05T08:15:06.720Z,5832.00
2022-09-05T08:16:11.075Z,5824.00
2022-09-05T08:17:06.855Z,5816.00
2022-09-05T08:18:06.680Z,5804.00
2022-09-05T08:19:06.772Z,5816.00
2022-09-05T08:20:08.769Z,5788.00
2022-09-05T08:21:06.789Z,5736.00
2022-09-05T08:23:09.408Z,5812.00
2022-09-05T08:24:13.835Z,5820.00
2022-09-05T08:25:09.487Z,5752.00
2022-09-05T08:26:09.511Z,5764.00
2022-09-05T08:27:16.054Z,5784.00
2022-09-05T08:28:09.596Z,5736.00
2022-09-05T08:29:09.616Z,5692.00
2022-09-05T08:30:27.507Z,5708.00
2022-09-05T08:31:09.740Z,5716.00
2022-09-05T08:32:09.718Z,5704.00
2022-09-05T08:33:10.961Z,5696.00
2022-09-05T08:34:09.786Z,5680.00
2022-09-05T08:35:09.821Z,5660.00
2022-09-05T08:36:09.859Z,5632.00
2022-09-05T08:37:09.890Z,5608.00
2022-09-05T08:38:09.927Z,5612.00
2022-09-05T08:39:09.960Z,5616.00
2022-09-05T08:40:11.655Z,5616.00
2022-09-05T08:41:10.030Z,5600.00
2022-09-05T08:42:10.065Z,5620.00
2022-09-05T08:46:35.457Z,5624.00
2022-09-05T08:46:36.161Z,5640.00
2022-09-05T08:46:39.704Z,5668.00
2022-09-05T08:46:47.013Z,5644.00
2022-09-05T08:47:10.343Z,5684.00
2022-09-05T08:48:10.276Z,5712.00
2022-09-05T08:49:12.445Z,5588.00
2022-09-05T08:50:10.348Z,5768.00
2022-09-05T08:51:10.381Z,5800.00
2022-09-05T08:52:13.442Z,5852.00
2022-09-05T08:53:38.261Z,5920.00
2022-09-05T08:54:10.487Z,5936.00
2022-09-05T08:55:10.521Z,6004.00
2022-09-05T08:56:10.556Z,6052.00
2022-09-05T08:57:10.590Z,6112.00
2022-09-05T08:58:10.628Z,6192.00
2022-09-05T08:59:32.096Z,6260.00
2022-09-05T09:00:20.839Z,6344.00
2022-09-05T09:01:10.787Z,6472.00
2022-09-05T09:02:32.939Z,6644.00
2022-09-05T09:03:10.859Z,6836.00
2022-09-05T09:04:11.455Z,7132.00
2022-09-05T09:05:14.495Z,7708.00
2022-09-05T09:06:13.784Z,8480.00
2022-09-05T09:07:47.120Z,9852.00
2022-09-05T09:08:10.985Z,10576.00
2022-09-05T09:09:11.023Z,12152.00
2022-09-05T09:10:11.059Z,13852.00
2022-09-05T09:11:11.093Z,15904.00
2022-09-05T09:12:11.140Z,16704.00
2022-09-05T09:13:11.166Z,17184.00
2022-09-05T09:14:11.243Z,17024.00
2022-09-05T09:15:11.240Z,18624.00
2022-09-05T09:16:11.336Z,19520.00
2022-09-05T09:17:11.324Z,19392.00
2022-09-05T09:18:11.350Z,18944.00
2022-09-05T09:19:11.383Z,19680.00
2022-09-05T09:20:11.424Z,20128.00
2022-09-05T09:21:11.466Z,20096.00
2022-09-05T09:22:11.521Z,20608.00
2022-09-05T09:23:32.031Z,20352.00
2022-09-05T09:24:11.563Z,22944.00
2022-09-05T09:25:16.099Z,25024.00
2022-09-05T09:26:11.637Z,25984.00
2022-09-05T09:27:11.681Z,26496.00
2022-09-05T09:28:48.873Z,27392.00
2022-09-05T09:29:11.744Z,27584.00
2022-09-05T09:30:11.783Z,28416.00
2022-09-05T09:31:11.990Z,31584.00
2022-09-05T09:32:11.857Z,32576.00
2022-09-05T09:33:11.896Z,34144.00
2022-09-05T09:34:11.931Z,34560.00
2022-09-05T09:35:11.968Z,36288.00
2022-09-05T09:36:12.004Z,38080.00
2022-09-05T09:39:38.323Z,48800.00
2022-09-05T09:42:21.105Z,64224.00
2022-09-05T09:43:12.272Z,70048.00
2022-09-05T09:45:21.659Z,71904.00
2022-09-05T09:54:00.219Z,24416.00
2022-09-05T09:55:00.754Z,18784.00
2022-09-05T09:56:00.282Z,15956.00
2022-09-05T09:57:00.323Z,14732.00
2022-09-05T09:58:00.359Z,13996.00
2022-09-05T09:59:03.628Z,13116.00
2022-09-05T10:00:00.431Z,12572.00
2022-09-05T10:01:01.687Z,12148.00
2022-09-05T10:02:08.909Z,11764.00
2022-09-05T10:04:59.930Z,11244.00
2022-09-05T10:10:32.985Z,10848.00
2022-09-05T10:10:34.990Z,10524.00
2022-09-05T10:10:46.046Z,9744.00
2022-09-05T10:10:46.650Z,9944.00
2022-09-05T10:10:54.225Z,9064.00
2022-09-05T10:10:54.450Z,10308.00
2022-09-05T10:10:55.123Z,10096.00
2022-09-05T10:11:34.009Z,9328.00
2022-09-05T10:12:01.959Z,9180.00
2022-09-05T10:13:08.680Z,9128.00
2022-09-05T10:14:00.959Z,9136.00
2022-09-05T10:15:09.583Z,8912.00
2022-09-05T10:16:01.034Z,8788.00
2022-09-05T10:17:01.075Z,8752.00
2022-09-05T10:18:01.112Z,8456.00
2022-09-05T10:19:01.147Z,8460.00
2022-09-05T10:20:10.489Z,8208.00
2022-09-05T10:21:16.151Z,8096.00
2022-09-05T10:23:01.299Z,8048.00
2022-09-05T10:24:01.335Z,8000.00
2022-09-05T10:25:18.456Z,7932.00
2022-09-05T10:26:04.034Z,7872.00
2022-09-05T10:27:01.449Z,7888.00
2022-09-05T10:28:01.482Z,7736.00
2022-09-05T10:29:26.710Z,7692.00
2022-09-05T10:30:03.180Z,7664.00
2022-09-05T10:32:47.098Z,7700.00
2022-09-05T10:35:02.743Z,7648.00
2022-09-05T10:35:08.367Z,7644.00
2022-09-05T10:35:13.824Z,7552.00
2022-09-05T10:35:21.267Z,7524.00
2022-09-05T10:36:44.338Z,7524.00
2022-09-05T10:38:26.935Z,7736.00
2022-09-05T10:39:27.031Z,7772.00
2022-09-05T10:40:27.020Z,7920.00
2022-09-05T10:41:27.057Z,8024.00
2022-09-05T10:42:27.088Z,8100.00
2022-09-05T10:43:27.123Z,8068.00
2022-09-05T10:52:18.831Z,7852.00
2022-09-05T10:53:11.653Z,7728.00
2022-09-05T10:54:11.699Z,7688.00
2022-09-05T10:56:11.762Z,7504.00
2022-09-05T10:58:11.836Z,7468.00
2022-09-05T11:01:40.323Z,7504.00
2022-09-05T11:02:30.354Z,7332.00
2022-09-05T11:02:41.162Z,7348.00
2022-09-05T11:03:37.275Z,7320.00
2022-09-05T11:04:46.773Z,7264.00
2022-09-05T11:05:37.251Z,7344.00
2022-09-05T11:06:37.220Z,7288.00
2022-09-05T11:07:37.245Z,7000.00
2022-09-05T11:08:37.283Z,7040.00
2022-09-05T11:09:37.318Z,6948.00
2022-09-05T11:11:37.393Z,6544.00
2022-09-05T11:13:37.465Z,6256.00
2022-09-05T11:14:37.504Z,6260.00
2022-09-05T11:15:37.605Z,6168.00
2022-09-05T11:16:37.700Z,6024.00
2022-09-05T11:17:37.611Z,5896.00
2022-09-05T11:18:56.251Z,5744.00
2022-09-05T11:24:45.445Z,5108.00
2022-09-05T11:25:45.482Z,5112.00
2022-09-05T11:27:23.190Z,5236.00
2022-09-05T11:27:45.554Z,5308.00
2022-09-05T11:28:57.579Z,5356.00
2022-09-05T11:34:42.830Z,5172.00
2022-09-05T11:39:36.454Z,5164.00
2022-09-05T11:39:53.198Z,5284.00
2022-09-05T11:39:59.252Z,5064.00
2022-09-05T11:40:04.427Z,5356.00
2022-09-05T11:40:07.749Z,5352.00
2022-09-05T11:40:08.919Z,5340.00
2022-09-05T11:40:09.004Z,5368.00
2022-09-05T11:40:28.555Z,5344.00
2022-09-05T11:41:04.897Z,5332.00
2022-09-05T11:41:46.093Z,5340.00
2022-09-05T11:42:46.123Z,5336.00
2022-09-05T11:44:59.269Z,5428.00
2022-09-05T11:45:59.583Z,5452.00
2022-09-05T11:46:59.341Z,5488.00
2022-09-05T11:47:59.389Z,5496.00
2022-09-05T11:48:59.409Z,5380.00
2022-09-05T11:49:59.448Z,5300.00
2022-09-05T11:50:59.482Z,5204.00
2022-09-05T11:51:59.519Z,5088.00
2022-09-05T11:52:59.552Z,5104.00
2022-09-05T11:53:59.589Z,5156.00
2022-09-05T11:54:59.623Z,5264.00
2022-09-05T11:55:59.660Z,5312.00
2022-09-05T11:57:02.194Z,5348.00
2022-09-05T11:57:59.729Z,5468.00
2022-09-05T11:58:59.763Z,5604.00
2022-09-05T12:00:31.414Z,5836.00
2022-09-05T12:01:38.331Z,6048.00
2022-09-05T12:02:16.623Z,6348.00
2022-09-05T12:03:00.699Z,6368.00
2022-09-05T12:04:01.080Z,6424.00
2022-09-05T12:05:50.260Z,6488.00
2022-09-05T12:06:00.123Z,6572.00
2022-09-05T12:07:00.662Z,6624.00
2022-09-05T12:08:00.085Z,6468.00
2022-09-05T12:09:00.114Z,6260.00
2022-09-05T12:10:00.210Z,5932.00
2022-09-05T12:11:00.187Z,5780.00
2022-09-05T12:12:00.243Z,5756.00
2022-09-05T12:13:00.255Z,5684.00
2022-09-05T12:14:00.295Z,5652.00
2022-09-05T12:15:00.328Z,5732.00
2022-09-05T12:16:07.499Z,5812.00
2022-09-05T12:17:00.396Z,5772.00
2022-09-05T12:18:00.437Z,5724.00
2022-09-05T12:19:06.307Z,5620.00
2022-09-05T12:20:00.502Z,5704.00
2022-09-05T12:21:00.538Z,5584.00
2022-09-05T12:22:00.573Z,5368.00
2022-09-05T12:23:00.621Z,5244.00
2022-09-05T12:24:54.547Z,5160.00
2022-09-05T12:25:25.153Z,5176.00
2022-09-05T12:27:38.322Z,5188.00
2022-09-05T12:27:39.059Z,5240.00
2022-09-05T12:28:48.396Z,5232.00
2022-09-05T12:29:26.337Z,5284.00
2022-09-05T12:30:01.223Z,5256.00
2022-09-05T12:32:36.622Z,5192.00
2022-09-05T12:33:43.825Z,5152.00
2022-09-05T12:35:56.997Z,5092.00
2022-09-05T12:36:06.804Z,5008.00
2022-09-05T12:36:10.819Z,4928.00
2022-09-05T12:38:57.042Z,4884.00
2022-09-05T12:40:19.767Z,4960.00
2022-09-05T12:40:55.129Z,4956.00
2022-09-05T12:40:55.848Z,4796.00
2022-09-05T12:40:58.197Z,4992.00
2022-09-05T12:41:43.804Z,4916.00
2022-09-05T12:42:13.920Z,4900.00
2022-09-05T12:43:46.281Z,4912.00
2022-09-05T12:44:39.437Z,4944.00
2022-09-05T12:45:02.226Z,4892.00
2022-09-05T12:46:01.418Z,4840.00
2022-09-05T12:47:18.747Z,4816.00
2022-09-05T12:48:01.479Z,4724.00
2022-09-05T12:49:06.726Z,4680.00
2022-09-05T12:50:02.399Z,4672.00
2022-09-05T12:51:01.584Z,4656.00
2022-09-05T12:53:01.654Z,4604.00
2022-09-05T12:54:01.685Z,4544.00
2022-09-05T12:55:01.728Z,4496.00
2022-09-05T12:56:38.694Z,4420.00
2022-09-05T13:01:23.368Z,4312.00
2022-09-05T13:03:02.905Z,4220.00
2022-09-05T13:03:03.052Z,4316.00
2022-09-05T13:03:05.818Z,4292.00
2022-09-05T13:03:06.201Z,4096.00
2022-09-05T13:03:14.501Z,4136.00
2022-09-05T13:03:28.308Z,3992.00
2022-09-05T13:04:19.605Z,4024.00
2022-09-05T13:05:02.818Z,4144.00
2022-09-05T13:06:02.308Z,4180.00
2022-09-05T13:07:02.137Z,4228.00
2022-09-05T13:08:02.177Z,4188.00
2022-09-05T13:09:02.209Z,4084.00
2022-09-05T13:11:39.207Z,4012.00
2022-09-05T13:14:49.836Z,3924.00
2022-09-05T13:14:50.555Z,3984.00
2022-09-05T13:14:53.444Z,3852.00
2022-09-05T13:14:57.930Z,3868.00
2022-09-05T13:15:18.693Z,3860.00
2022-09-05T13:16:02.536Z,3872.00
2022-09-05T13:17:02.498Z,3868.00
2022-09-05T13:18:02.514Z,3856.00
2022-09-05T13:19:02.551Z,3844.00
2022-09-05T13:20:02.588Z,3808.00
2022-09-05T13:21:02.621Z,3800.00
2022-09-05T13:22:02.654Z,3804.00
2022-09-05T13:23:02.688Z,3812.00
2022-09-05T13:24:02.721Z,3812.00
2022-09-05T13:25:02.822Z,3824.00
2022-09-05T13:26:02.790Z,3844.00
2022-09-05T13:27:02.827Z,3872.00
2022-09-05T13:28:02.859Z,3816.00
2022-09-05T13:29:10.290Z,3776.00
2022-09-05T13:31:48.290Z,3740.00
2022-09-05T13:36:54.486Z,3692.00
2022-09-05T13:37:55.782Z,3664.00
2022-09-05T13:38:05.048Z,3764.00
2022-09-05T13:38:12.569Z,3696.00
2022-09-05T13:38:20.016Z,3652.00
2022-09-05T13:38:28.883Z,3792.00
2022-09-05T13:38:30.757Z,3748.00
2022-09-05T13:38:37.681Z,3784.00
2022-09-05T13:39:04.342Z,3748.00
2022-09-05T13:40:03.428Z,3716.00
2022-09-05T13:41:03.307Z,3592.00
2022-09-05T13:42:03.344Z,3640.00
2022-09-05T13:43:03.377Z,3676.00
2022-09-05T13:44:25.485Z,3644.00
2022-09-05T13:45:03.444Z,3656.00
2022-09-05T13:46:03.626Z,3568.00
2022-09-05T13:47:29.801Z,3680.00
2022-09-05T13:48:03.546Z,3544.00
2022-09-05T13:50:05.345Z,3728.00
2022-09-05T13:51:03.651Z,3768.00
2022-09-05T13:52:03.683Z,3800.00
2022-09-05T13:53:03.719Z,3772.00
2022-09-05T13:54:03.751Z,3716.00
2022-09-05T13:55:03.789Z,3844.00
2022-09-05T13:56:03.857Z,3872.00
2022-09-05T13:57:03.856Z,3780.00
2022-09-05T13:58:03.888Z,3876.00
2022-09-05T13:59:03.925Z,3756.00
2022-09-05T14:00:03.961Z,3768.00
2022-09-05T14:01:04.111Z,3932.00
2022-09-05T14:02:25.600Z,3852.00
2022-09-05T14:04:04.157Z,4152.00
2022-09-05T14:05:06.662Z,4176.00
2022-09-05T14:06:08.548Z,4232.00
2022-09-05T14:08:04.232Z,4112.00
2022-09-05T14:10:04.301Z,3960.00
2022-09-05T14:11:04.337Z,4032.00
2022-09-05T14:12:04.368Z,3844.00
2022-09-05T14:13:04.408Z,3844.00
2022-09-05T14:14:04.817Z,3776.00
2022-09-05T14:15:13.692Z,3624.00
2022-09-05T14:16:04.505Z,3848.00
2022-09-05T14:18:17.770Z,3880.00
2022-09-05T14:19:04.609Z,3640.00
2022-09-05T14:20:04.641Z,3864.00
2022-09-05T14:21:08.745Z,3864.00
2022-09-05T14:22:04.712Z,4276.00
2022-09-05T14:23:04.745Z,4156.00
2022-09-05T14:24:04.836Z,4176.00
2022-09-05T14:25:04.820Z,4092.00
2022-09-05T14:26:04.848Z,4384.00
2022-09-05T14:27:05.183Z,4716.00
2022-09-05T14:28:04.915Z,4712.00
2022-09-05T14:29:05.902Z,3972.00
2022-09-05T14:30:18.097Z,3980.00
2022-09-05T14:34:30.984Z,4172.00
2022-09-05T14:37:34.808Z,4064.00
2022-09-05T14:37:41.385Z,4020.00
2022-09-05T14:37:49.519Z,3952.00
2022-09-05T14:37:52.210Z,4240.00
2022-09-05T14:37:52.613Z,3984.00
2022-09-05T14:38:00.773Z,4260.00
2022-09-05T14:38:13.642Z,3908.00
2022-09-05T14:39:05.380Z,3872.00
2022-09-05T14:40:29.714Z,3828.00
2022-09-05T14:41:05.357Z,3788.00
2022-09-05T14:42:09.425Z,3780.00
2022-09-05T14:43:05.709Z,3772.00
2022-09-05T14:44:05.592Z,3908.00
2022-09-05T14:45:06.231Z,3856.00
2022-09-05T14:46:05.557Z,3520.00
2022-09-05T14:47:05.560Z,3452.00
2022-09-05T14:48:05.593Z,3388.00
2022-09-05T14:49:05.628Z,3352.00
2022-09-05T14:50:05.660Z,3332.00
2022-09-05T14:51:05.699Z,3308.00
2022-09-05T14:52:05.728Z,3272.00
2022-09-05T14:54:05.800Z,3180.00
2022-09-05T14:55:21.544Z,3136.00